Time;durP1;ratioP1;P1;durP2;ratioP2;P2;SDS_P1;SDS_P2;PMS_P1;PMS_P2;Temp;Humidity;BMP_temperature;BMP_pressure;BME280_temperature;BME280_humidity;BME280_pressure;Samples;Min_cycle;Max_cycle;Signal;HPM_P1;HPM_P2
2023/05/08 00:00:42;;;;;;;8.97;8.17;;;;;;;;;;4995023;28;20506;-80
2023/05/08 00:03:08;;;;;;;9.43;8.50;;;;;;;;;;4990523;28;20438;-80
2023/05/08 00:05:34;;;;;;;9.07;8.20;;;;;;;;;;4995786;28;20917;-80
2023/05/08 00:08:01;;;;;;;9.45;8.30;;;;;;;;;;4992461;28;20465;-80
2023/05/08 00:10:28;;;;;;;10.07;9.07;;;;;;;;;;4988136;28;20426;-80
2023/05/08 00:12:54;;;;;;;9.90;8.50;;;;;;;;;;4991099;28;20477;-80
2023/05/08 00:15:21;;;;;;;9.80;8.80;;;;;;;;;;4992584;28;20441;-80
2023/05/08 00:17:48;;;;;;;9.13;8.23;;;;;;;;;;4993242;28;20426;-80
2023/05/08 00:20:15;;;;;;;10.20;9.20;;;;;;;;;;4990528;28;20494;-80
2023/05/08 00:22:41;;;;;;;9.45;8.55;;;;;;;;;;4988536;28;20434;-80
2023/05/08 00:25:08;;;;;;;9.70;8.80;;;;;;;;;;4984339;28;20423;-80
2023/05/08 00:27:34;;;;;;;9.55;8.65;;;;;;;;;;4988339;28;20431;-80
2023/05/08 00:30:01;;;;;;;9.90;8.90;;;;;;;;;;4989911;28;20424;-80
2023/05/08 00:32:27;;;;;;;9.73;8.57;;;;;;;;;;4987136;28;20784;-80
2023/05/08 00:34:56;;;;;;;9.77;8.40;;;;;;;;;;4992205;28;20454;-80
2023/05/08 00:37:22;;;;;;;9.75;8.82;;;;;;;;;;4990412;28;20438;-80
2023/05/08 00:39:49;;;;;;;9.68;8.77;;;;;;;;;;4994777;28;20420;-80
2023/05/08 00:42:16;;;;;;;9.23;8.32;;;;;;;;;;4985201;28;20435;-80
2023/05/08 00:44:43;;;;;;;10.02;9.02;;;;;;;;;;4990314;28;20438;-80
2023/05/08 00:47:10;;;;;;;9.15;8.18;;;;;;;;;;4990568;28;20418;-80
2023/05/08 00:49:36;;;;;;;9.10;8.30;;;;;;;;;;4987806;28;20422;-80
2023/05/08 00:52:07;;;;;;;9.80;8.80;;;;;;;;;;4992109;28;20433;-80
2023/05/08 00:54:34;;;;;;;9.80;8.90;;;;;;;;;;4991700;28;20418;-80
2023/05/08 00:57:00;;;;;;;9.88;8.88;;;;;;;;;;4992028;28;20453;-80
2023/05/08 00:59:27;;;;;;;9.35;8.45;;;;;;;;;;4987709;28;20431;-80
2023/05/08 01:01:53;;;;;;;9.90;8.90;;;;;;;;;;4990677;28;20496;-80
2023/05/08 01:04:21;;;;;;;10.23;8.80;;;;;;;;;;4989536;28;20426;-80
2023/05/08 01:06:47;;;;;;;9.55;8.65;;;;;;;;;;4990850;28;20434;-80
2023/05/08 01:09:15;;;;;;;11.80;9.10;;;;;;;;;;4990803;28;20420;-81
2023/05/08 01:11:44;;;;;;;10.15;9.15;;;;;;;;;;4991455;28;20434;-80
2023/05/08 01:14:15;;;;;;;10.32;9.32;;;;;;;;;;4984714;28;20904;-80
2023/05/08 01:16:44;;;;;;;9.93;9.00;;;;;;;;;;4989965;28;20453;-80
2023/05/08 01:19:27;;;;;;;10.10;9.10;;;;;;;;;;4990938;28;20451;-80
2023/05/08 01:21:56;;;;;;;9.15;8.27;;;;;;;;;;4989544;28;20438;-80
2023/05/08 01:24:38;;;;;;;11.48;10.27;;;;;;;;;;4985799;28;20426;-80
2023/05/08 01:27:24;;;;;;;9.80;9.00;;;;;;;;;;4984607;28;20423;-80
2023/05/08 01:30:05;;;;;;;10.65;9.55;;;;;;;;;;4988799;28;20417;-80
2023/05/08 01:32:36;;;;;;;11.00;9.90;;;;;;;;;;4989637;28;20422;-80
2023/05/08 01:35:09;;;;;;;10.40;9.40;;;;;;;;;;4989923;28;20422;-80
2023/05/08 01:37:37;;;;;;;9.65;8.73;;;;;;;;;;4991722;28;20437;-80
2023/05/08 01:40:12;;;;;;;9.25;8.45;;;;;;;;;;4983503;28;20431;-80
2023/05/08 01:42:48;;;;;;;10.60;9.60;;;;;;;;;;4991367;28;20430;-79
2023/05/08 01:45:19;;;;;;;9.93;8.93;;;;;;;;;;4987216;28;20477;-79
2023/05/08 01:47:49;;;;;;;10.50;9.40;;;;;;;;;;4987616;28;20423;-79
2023/05/08 01:50:18;;;;;;;13.60;10.90;;;;;;;;;;4993633;28;20426;-79
2023/05/08 01:52:49;;;;;;;11.10;9.95;;;;;;;;;;4995602;28;20414;-79
2023/05/08 01:55:17;;;;;;;11.20;10.10;;;;;;;;;;4995294;28;20429;-79
2023/05/08 01:57:46;;;;;;;10.88;9.77;;;;;;;;;;4991486;28;20418;-79
2023/05/08 02:00:14;;;;;;;10.23;9.23;;;;;;;;;;4994480;28;20770;-79
2023/05/08 02:02:42;;;;;;;10.75;9.70;;;;;;;;;;4993261;28;20433;-79
2023/05/08 02:05:12;;;;;;;10.80;9.18;;;;;;;;;;4991562;28;20434;-79
2023/05/08 02:07:39;;;;;;;10.57;9.48;;;;;;;;;;4990574;28;20967;-79
2023/05/08 02:10:07;;;;;;;11.88;10.20;;;;;;;;;;4990981;28;20423;-79
2023/05/08 02:12:34;;;;;;;10.63;9.63;;;;;;;;;;4995364;28;20437;-79
2023/05/08 02:15:01;;;;;;;10.63;9.57;;;;;;;;;;4990078;28;20437;-79
2023/05/08 02:17:29;;;;;;;11.40;10.20;;;;;;;;;;4994730;28;20420;-79
2023/05/08 02:19:57;;;;;;;11.73;10.63;;;;;;;;;;4993605;28;20862;-79
2023/05/08 02:22:26;;;;;;;11.67;10.47;;;;;;;;;;4994869;28;20453;-79
2023/05/08 02:24:55;;;;;;;11.05;10.05;;;;;;;;;;4988510;28;20427;-79
2023/05/08 02:27:22;;;;;;;11.73;10.43;;;;;;;;;;4993650;28;20445;-79
2023/05/08 02:29:50;;;;;;;11.73;10.52;;;;;;;;;;4992174;28;20418;-79
2023/05/08 02:32:17;;;;;;;13.93;10.80;;;;;;;;;;4995148;28;20426;-79
2023/05/08 02:34:44;;;;;;;12.80;10.95;;;;;;;;;;4994005;28;20422;-79
2023/05/08 02:37:12;;;;;;;12.80;11.50;;;;;;;;;;4995203;28;20437;-78
2023/05/08 02:39:42;;;;;;;11.88;10.68;;;;;;;;;;4995525;28;20900;-78
2023/05/08 02:42:08;;;;;;;13.40;11.10;;;;;;;;;;4994900;28;21125;-78
2023/05/08 02:44:34;;;;;;;12.10;10.90;;;;;;;;;;4994394;28;20418;-79
2023/05/08 02:47:05;;;;;;;12.17;10.87;;;;;;;;;;4994926;28;20525;-79
2023/05/08 02:49:33;;;;;;;11.60;10.50;;;;;;;;;;4993867;28;20506;-78
2023/05/08 02:52:04;;;;;;;12.63;11.32;;;;;;;;;;4993438;28;20438;-78
2023/05/08 02:54:35;;;;;;;11.27;10.27;;;;;;;;;;4993326;28;20407;-78
2023/05/08 02:57:08;;;;;;;11.70;10.60;;;;;;;;;;4990442;28;20438;-78
2023/05/08 02:59:38;;;;;;;11.60;10.50;;;;;;;;;;4993754;28;20426;-79
2023/05/08 03:02:09;;;;;;;12.32;11.02;;;;;;;;;;4991322;28;20442;-78
2023/05/08 03:04:40;;;;;;;11.90;10.80;;;;;;;;;;4990106;28;20425;-79
2023/05/08 03:07:07;;;;;;;12.38;11.18;;;;;;;;;;4990822;28;20422;-78
2023/05/08 03:09:38;;;;;;;12.60;11.33;;;;;;;;;;4992667;28;20475;-79
2023/05/08 03:12:10;;;;;;;11.82;10.63;;;;;;;;;;4995989;28;20423;-79
2023/05/08 03:14:40;;;;;;;12.48;11.18;;;;;;;;;;4993766;28;20422;-78
2023/05/08 03:17:08;;;;;;;12.18;10.98;;;;;;;;;;4990067;28;20432;-78
2023/05/08 03:19:36;;;;;;;13.55;11.57;;;;;;;;;;4994065;28;20441;-78
2023/05/08 03:22:04;;;;;;;12.57;11.35;;;;;;;;;;4994527;28;20425;-79
2023/05/08 03:24:31;;;;;;;12.70;11.50;;;;;;;;;;4988947;28;20415;-78
2023/05/08 03:26:58;;;;;;;12.52;11.32;;;;;;;;;;4990173;28;20438;-78
2023/05/08 03:29:27;;;;;;;12.40;11.20;;;;;;;;;;4992406;28;20421;-78
2023/05/08 03:31:54;;;;;;;13.77;12.37;;;;;;;;;;4994569;28;20491;-79
2023/05/08 03:34:21;;;;;;;14.10;11.60;;;;;;;;;;4989457;28;20433;-78
2023/05/08 03:36:48;;;;;;;13.75;12.27;;;;;;;;;;4990545;28;20442;-79
2023/05/08 03:39:14;;;;;;;13.57;12.18;;;;;;;;;;4993324;28;20441;-79
2023/05/08 03:41:40;;;;;;;13.57;12.27;;;;;;;;;;4994192;28;20430;-78
2023/05/08 03:44:07;;;;;;;13.13;11.90;;;;;;;;;;4994116;28;20431;-78
2023/05/08 03:46:35;;;;;;;13.60;12.30;;;;;;;;;;4991901;28;20414;-78
2023/05/08 03:49:03;;;;;;;14.38;12.50;;;;;;;;;;4992003;28;20867;-78
2023/05/08 03:51:31;;;;;;;13.47;12.17;;;;;;;;;;4993364;28;20418;-79
2023/05/08 03:53:57;;;;;;;13.38;11.98;;;;;;;;;;4990018;28;20473;-78
2023/05/08 03:56:24;;;;;;;13.60;12.20;;;;;;;;;;4991268;28;20427;-78
2023/05/08 03:58:56;;;;;;;14.27;12.77;;;;;;;;;;4993063;28;20812;-78
2023/05/08 04:01:24;;;;;;;13.43;12.13;;;;;;;;;;4991046;28;20774;-79
2023/05/08 04:03:56;;;;;;;16.00;14.40;;;;;;;;;;4993504;28;20426;-78
2023/05/08 04:06:29;;;;;;;13.52;12.23;;;;;;;;;;4991031;28;20434;-78
2023/05/08 04:09:01;;;;;;;14.10;12.70;;;;;;;;;;4993416;28;20434;-79
2023/05/08 04:11:31;;;;;;;13.57;12.18;;;;;;;;;;4992582;28;20995;-78
2023/05/08 04:14:02;;;;;;;14.38;12.98;;;;;;;;;;4983880;28;20845;-78
2023/05/08 04:16:31;;;;;;;14.07;12.77;;;;;;;;;;4992600;28;20422;-79
2023/05/08 04:19:01;;;;;;;13.60;12.20;;;;;;;;;;4990843;28;20462;-78
2023/05/08 04:21:28;;;;;;;13.83;12.43;;;;;;;;;;4989095;28;20453;-78
2023/05/08 04:23:57;;;;;;;13.25;11.95;;;;;;;;;;4990340;28;20438;-78
2023/05/08 04:26:23;;;;;;;14.20;12.77;;;;;;;;;;4991396;28;20441;-79
2023/05/08 04:28:49;;;;;;;13.73;12.43;;;;;;;;;;4997211;28;20433;-79
2023/05/08 04:31:16;;;;;;;13.98;12.57;;;;;;;;;;4992043;28;20430;-78
2023/05/08 04:33:44;;;;;;;14.40;13.00;;;;;;;;;;4985621;28;20432;-79
2023/05/08 04:36:13;;;;;;;14.80;13.32;;;;;;;;;;4992732;28;20410;-78
2023/05/08 04:38:39;;;;;;;14.13;12.73;;;;;;;;;;4989404;28;20451;-79
2023/05/08 04:41:05;;;;;;;14.10;12.70;;;;;;;;;;4992073;28;20936;-79
2023/05/08 04:43:32;;;;;;;15.13;13.60;;;;;;;;;;4993914;28;20457;-78
2023/05/08 04:45:58;;;;;;;14.13;12.73;;;;;;;;;;4991473;28;20422;-78
2023/05/08 04:48:24;;;;;;;14.30;12.90;;;;;;;;;;4991894;28;20468;-78
2023/05/08 04:50:53;;;;;;;14.30;12.90;;;;;;;;;;4991333;28;20422;-79
2023/05/08 04:53:20;;;;;;;14.77;13.27;;;;;;;;;;4992233;28;20581;-79
2023/05/08 04:55:47;;;;;;;14.43;12.98;;;;;;;;;;4991059;28;20434;-78
2023/05/08 04:58:13;;;;;;;14.50;13.10;;;;;;;;;;4987536;28;20523;-79
2023/05/08 05:00:39;;;;;;;14.75;13.07;;;;;;;;;;4994206;28;20774;-78
2023/05/08 05:03:08;;;;;;;13.75;12.35;;;;;;;;;;4993343;28;20998;-78
2023/05/08 05:05:34;;;;;;;14.30;12.90;;;;;;;;;;4991644;28;20950;-78
2023/05/08 05:08:01;;;;;;;16.88;13.70;;;;;;;;;;4991792;28;20422;-77
2023/05/08 05:10:29;;;;;;;14.40;13.00;;;;;;;;;;4991882;28;20422;-79
2023/05/08 05:12:55;;;;;;;14.63;13.03;;;;;;;;;;4992640;28;20403;-79
2023/05/08 05:15:21;;;;;;;14.23;12.82;;;;;;;;;;4990609;28;20422;-79
2023/05/08 05:17:48;;;;;;;12.60;11.40;;;;;;;;;;4992498;28;20424;-79
2023/05/08 05:20:14;;;;;;;13.82;12.52;;;;;;;;;;4991683;28;20422;-77
2023/05/08 05:22:41;;;;;;;15.82;13.02;;;;;;;;;;4988378;28;20801;-79
2023/05/08 05:25:07;;;;;;;13.90;12.35;;;;;;;;;;4986942;28;20433;-78
2023/05/08 05:27:36;;;;;;;19.10;15.57;;;;;;;;;;4990596;28;20424;-79
2023/05/08 05:30:02;;;;;;;13.75;12.50;;;;;;;;;;4992109;28;20492;-77
2023/05/08 05:32:29;;;;;;;13.45;12.13;;;;;;;;;;4992560;28;20419;-77
2023/05/08 05:34:55;;;;;;;13.90;12.50;;;;;;;;;;4991880;28;20411;-77
2023/05/08 05:37:22;;;;;;;13.07;11.82;;;;;;;;;;4991965;28;20422;-78
2023/05/08 05:39:48;;;;;;;13.98;12.55;;;;;;;;;;4991805;28;20415;-77
2023/05/08 05:42:14;;;;;;;15.98;14.32;;;;;;;;;;4992569;28;20422;-78
2023/05/08 05:44:42;;;;;;;13.40;12.00;;;;;;;;;;4991508;28;20415;-78
2023/05/08 05:47:09;;;;;;;13.02;11.73;;;;;;;;;;4992185;28;20421;-79
2023/05/08 05:49:36;;;;;;;13.13;11.73;;;;;;;;;;4980780;28;20930;-78
2023/05/08 05:52:02;;;;;;;13.27;12.03;;;;;;;;;;4988482;28;20834;-79
2023/05/08 05:54:29;;;;;;;13.20;11.90;;;;;;;;;;4989387;28;20414;-79
2023/05/08 05:56:55;;;;;;;14.00;12.60;;;;;;;;;;4992073;28;20426;-79
2023/05/08 05:59:21;;;;;;;13.18;11.98;;;;;;;;;;4988462;28;20445;-78
2023/05/08 06:01:49;;;;;;;13.00;11.85;;;;;;;;;;4992291;28;20418;-77
2023/05/08 06:04:16;;;;;;;12.95;11.65;;;;;;;;;;4991787;28;20514;-79
2023/05/08 06:06:42;;;;;;;13.05;11.75;;;;;;;;;;4992267;28;20421;-77
2023/05/08 06:09:08;;;;;;;13.20;12.00;;;;;;;;;;4986102;28;20422;-79
2023/05/08 06:11:35;;;;;;;12.68;11.50;;;;;;;;;;4991306;28;20424;-79
2023/05/08 06:14:01;;;;;;;11.90;10.70;;;;;;;;;;4992239;28;20422;-77
2023/05/08 06:16:29;;;;;;;13.63;12.13;;;;;;;;;;4988569;28;20433;-77
2023/05/08 06:18:56;;;;;;;13.35;12.05;;;;;;;;;;4987644;28;20434;-79
2023/05/08 06:21:23;;;;;;;13.57;11.10;;;;;;;;;;4987881;28;20445;-77
2023/05/08 06:23:49;;;;;;;12.90;11.60;;;;;;;;;;4989429;28;20426;-79
2023/05/08 06:26:15;;;;;;;12.40;11.20;;;;;;;;;;4990412;28;20484;-79
2023/05/08 06:28:42;;;;;;;12.00;10.90;;;;;;;;;;4991982;28;20414;-79
2023/05/08 06:31:11;;;;;;;12.40;11.30;;;;;;;;;;4986172;28;20447;-79
2023/05/08 06:33:37;;;;;;;12.50;11.30;;;;;;;;;;4990591;28;20991;-78
2023/05/08 06:36:05;;;;;;;11.65;10.55;;;;;;;;;;4993312;28;20493;-79
2023/05/08 06:38:32;;;;;;;12.38;11.07;;;;;;;;;;4995424;28;20425;-79
2023/05/08 06:40:58;;;;;;;13.23;11.50;;;;;;;;;;4994773;28;20928;-79
2023/05/08 06:43:25;;;;;;;12.48;11.27;;;;;;;;;;4995434;28;20437;-77
2023/05/08 06:45:52;;;;;;;12.07;10.88;;;;;;;;;;4995225;28;20800;-79
2023/05/08 06:48:18;;;;;;;12.68;11.48;;;;;;;;;;4993155;28;20418;-77
2023/05/08 06:50:45;;;;;;;11.90;10.80;;;;;;;;;;4994338;28;20430;-79
2023/05/08 06:53:13;;;;;;;12.35;11.07;;;;;;;;;;4994926;28;20784;-78
2023/05/08 06:55:42;;;;;;;11.55;10.45;;;;;;;;;;4991619;28;20425;-77
2023/05/08 06:58:09;;;;;;;12.13;10.93;;;;;;;;;;4990690;28;20414;-79
2023/05/08 07:00:35;;;;;;;12.77;11.63;;;;;;;;;;4988583;28;20519;-79
2023/05/08 07:03:01;;;;;;;12.90;11.70;;;;;;;;;;4991295;28;20442;-79
2023/05/08 07:05:28;;;;;;;12.48;11.20;;;;;;;;;;5000095;28;20428;-79
2023/05/08 07:07:55;;;;;;;11.43;10.32;;;;;;;;;;4995269;28;21019;-79
2023/05/08 07:10:22;;;;;;;11.90;10.70;;;;;;;;;;4990187;28;20963;-79
2023/05/08 07:12:49;;;;;;;12.77;11.47;;;;;;;;;;4995061;28;20425;-79
2023/05/08 07:15:15;;;;;;;11.82;10.80;;;;;;;;;;4991006;28;20919;-79
2023/05/08 07:17:42;;;;;;;10.32;9.40;;;;;;;;;;4994356;28;20425;-79
2023/05/08 07:20:09;;;;;;;11.60;10.55;;;;;;;;;;4992271;28;20774;-79
2023/05/08 07:22:35;;;;;;;12.27;11.07;;;;;;;;;;4993535;28;20410;-79
2023/05/08 07:25:02;;;;;;;11.30;10.23;;;;;;;;;;4993133;28;20422;-79
2023/05/08 07:27:30;;;;;;;13.50;11.32;;;;;;;;;;4993028;28;20424;-80
2023/05/08 07:29:57;;;;;;;12.38;11.25;;;;;;;;;;4993865;28;20426;-79
2023/05/08 07:32:23;;;;;;;11.45;10.35;;;;;;;;;;4990313;28;20844;-79
2023/05/08 07:34:50;;;;;;;11.05;10.05;;;;;;;;;;4993972;28;20423;-77
2023/05/08 07:37:16;;;;;;;11.65;9.80;;;;;;;;;;4988741;28;20422;-77
2023/05/08 07:39:42;;;;;;;10.82;9.80;;;;;;;;;;4993509;28;20414;-77
2023/05/08 07:42:09;;;;;;;11.20;10.10;;;;;;;;;;4994055;28;20418;-77
2023/05/08 07:44:36;;;;;;;10.65;9.60;;;;;;;;;;4995163;28;20402;-78
2023/05/08 07:47:03;;;;;;;10.50;9.50;;;;;;;;;;4989769;28;20438;-79
2023/05/08 07:49:29;;;;;;;10.77;9.77;;;;;;;;;;4993264;28;20421;-77
2023/05/08 07:51:55;;;;;;;11.05;10.05;;;;;;;;;;4993227;28;20418;-78
2023/05/08 07:54:22;;;;;;;10.43;9.52;;;;;;;;;;4990729;28;20931;-77
2023/05/08 07:56:48;;;;;;;10.38;9.27;;;;;;;;;;4994217;28;20422;-79
2023/05/08 07:59:16;;;;;;;11.30;10.10;;;;;;;;;;4993824;28;20419;-80
2023/05/08 08:01:46;;;;;;;9.93;8.93;;;;;;;;;;4991139;28;20415;-80
2023/05/08 08:04:12;;;;;;;9.75;8.85;;;;;;;;;;4993455;28;20462;-80
2023/05/08 08:06:38;;;;;;;11.20;10.20;;;;;;;;;;4993408;28;20792;-80
2023/05/08 08:09:05;;;;;;;10.45;9.32;;;;;;;;;;4994323;28;20418;-78
2023/05/08 08:11:31;;;;;;;10.75;9.73;;;;;;;;;;4992033;28;20514;-78
2023/05/08 08:13:57;;;;;;;11.15;10.15;;;;;;;;;;4988784;28;20507;-78
2023/05/08 08:16:24;;;;;;;10.43;9.52;;;;;;;;;;4992641;28;20437;-78
2023/05/08 08:18:53;;;;;;;10.27;9.27;;;;;;;;;;4992182;28;20415;-78
2023/05/08 08:21:20;;;;;;;10.02;9.13;;;;;;;;;;4992917;28;20480;-78
2023/05/08 08:23:46;;;;;;;10.50;9.50;;;;;;;;;;4993026;28;20940;-78
2023/05/08 08:26:14;;;;;;;10.70;9.70;;;;;;;;;;4992504;28;20442;-78
2023/05/08 08:28:40;;;;;;;10.57;9.57;;;;;;;;;;4992982;28;20414;-78
2023/05/08 08:31:08;;;;;;;11.50;10.25;;;;;;;;;;4991446;28;20423;-78
2023/05/08 08:33:34;;;;;;;10.40;9.55;;;;;;;;;;4990443;28;20419;-78
2023/05/08 08:36:02;;;;;;;10.60;9.60;;;;;;;;;;4992736;28;20407;-77
2023/05/08 08:38:28;;;;;;;10.90;9.90;;;;;;;;;;4992124;28;20418;-77
2023/05/08 08:40:55;;;;;;;9.80;8.90;;;;;;;;;;4992570;28;20425;-78
2023/05/08 08:43:21;;;;;;;10.83;9.93;;;;;;;;;;4993218;28;20425;-79
2023/05/08 08:45:49;;;;;;;10.10;9.30;;;;;;;;;;4992374;28;20799;-79
2023/05/08 08:48:16;;;;;;;10.77;9.77;;;;;;;;;;4993214;28;20418;-79
2023/05/08 08:50:43;;;;;;;10.77;9.68;;;;;;;;;;4992524;28;20429;-79
2023/05/08 08:53:15;;;;;;;10.15;9.25;;;;;;;;;;4992810;28;20422;-79
2023/05/08 08:55:45;;;;;;;10.50;9.10;;;;;;;;;;4992095;28;20418;-79
2023/05/08 08:58:15;;;;;;;10.00;9.00;;;;;;;;;;4992616;28;20421;-79
2023/05/08 09:00:41;;;;;;;10.80;9.90;;;;;;;;;;4992498;28;20419;-79
2023/05/08 09:03:08;;;;;;;10.20;9.30;;;;;;;;;;4991901;28;20430;-79
2023/05/08 09:05:35;;;;;;;10.75;9.85;;;;;;;;;;4989526;28;20449;-79
2023/05/08 09:08:01;;;;;;;10.43;9.33;;;;;;;;;;4985953;28;20411;-77
2023/05/08 09:10:29;;;;;;;11.60;9.60;;;;;;;;;;4990346;28;20441;-77
2023/05/08 09:12:55;;;;;;;10.55;9.55;;;;;;;;;;4992769;28;20430;-77
2023/05/08 09:15:22;;;;;;;10.13;9.13;;;;;;;;;;4998177;28;20430;-77
2023/05/08 09:17:48;;;;;;;10.05;9.15;;;;;;;;;;4992564;28;20419;-79
2023/05/08 09:20:15;;;;;;;10.13;9.10;;;;;;;;;;4991978;28;20419;-79
2023/05/08 09:22:42;;;;;;;10.00;9.10;;;;;;;;;;4997099;28;20414;-79
2023/05/08 09:25:08;;;;;;;10.48;9.57;;;;;;;;;;4992123;28;20499;-79
2023/05/08 09:27:37;;;;;;;10.70;9.60;;;;;;;;;;4990563;28;20418;-79
2023/05/08 09:30:04;;;;;;;11.20;10.10;;;;;;;;;;4991281;28;20445;-80
2023/05/08 09:32:31;;;;;;;11.07;10.00;;;;;;;;;;4992238;28;20421;-79
2023/05/08 09:34:57;;;;;;;11.40;9.75;;;;;;;;;;4991334;28;20430;-77
2023/05/08 09:37:24;;;;;;;10.15;9.20;;;;;;;;;;4991923;28;20418;-78
2023/05/08 09:39:51;;;;;;;10.10;9.10;;;;;;;;;;4991619;28;20422;-79
2023/05/08 09:42:18;;;;;;;10.15;9.15;;;;;;;;;;4992333;28;20468;-80
2023/05/08 09:44:47;;;;;;;9.63;8.82;;;;;;;;;;4989097;28;20412;-79
2023/05/08 09:47:14;;;;;;;11.50;10.40;;;;;;;;;;4992276;28;20446;-79
2023/05/08 09:49:55;;;;;;;11.05;9.93;;;;;;;;;;4986556;28;20840;-77
2023/05/08 09:52:22;;;;;;;12.20;10.90;;;;;;;;;;4989802;28;20414;-77
2023/05/08 09:54:48;;;;;;;12.15;10.95;;;;;;;;;;4992368;28;20433;-79
2023/05/08 09:57:15;;;;;;;11.90;10.60;;;;;;;;;;4993423;28;20423;-79
2023/05/08 09:59:45;;;;;;;13.68;12.38;;;;;;;;;;4991709;28;20420;-79
2023/05/08 10:02:15;;;;;;;12.98;11.68;;;;;;;;;;4992276;28;20423;-77
2023/05/08 10:04:41;;;;;;;12.83;11.60;;;;;;;;;;4991540;28;20469;-76
2023/05/08 10:07:07;;;;;;;12.07;10.45;;;;;;;;;;4992266;28;20414;-78
2023/05/08 10:09:34;;;;;;;14.65;12.20;;;;;;;;;;4991500;28;20912;-78
2023/05/08 10:12:01;;;;;;;16.35;13.15;;;;;;;;;;4996174;28;20422;-79
2023/05/08 10:14:27;;;;;;;13.32;12.00;;;;;;;;;;4995458;28;20923;-79
2023/05/08 10:16:54;;;;;;;13.30;11.90;;;;;;;;;;4992082;28;20421;-77
2023/05/08 10:19:23;;;;;;;12.43;11.20;;;;;;;;;;4995169;28;20422;-80
2023/05/08 10:21:50;;;;;;;13.10;11.80;;;;;;;;;;4994648;28;20904;-79
2023/05/08 10:24:17;;;;;;;12.80;11.50;;;;;;;;;;4995028;28;20414;-79
2023/05/08 10:26:45;;;;;;;13.07;11.77;;;;;;;;;;4995765;28;20418;-77
2023/05/08 10:29:17;;;;;;;12.02;10.88;;;;;;;;;;4995373;28;20422;-77
2023/05/08 10:31:44;;;;;;;13.07;11.70;;;;;;;;;;4995268;28;20418;-80
2023/05/08 10:34:14;;;;;;;16.40;12.82;;;;;;;;;;4994172;28;20453;-78
2023/05/08 10:36:42;;;;;;;13.52;11.85;;;;;;;;;;4996104;28;20418;-77
2023/05/08 10:39:09;;;;;;;14.52;12.93;;;;;;;;;;4989291;28;20907;-79
2023/05/08 10:41:37;;;;;;;12.45;11.25;;;;;;;;;;4992991;28;20430;-79
2023/05/08 10:44:04;;;;;;;12.40;11.13;;;;;;;;;;4991095;28;20476;-78
2023/05/08 10:46:37;;;;;;;12.70;11.50;;;;;;;;;;4993339;28;20433;-77
2023/05/08 10:49:09;;;;;;;13.00;11.80;;;;;;;;;;4995435;28;20504;-77
2023/05/08 10:51:38;;;;;;;11.98;10.88;;;;;;;;;;4993810;28;20407;-78
2023/05/08 10:54:08;;;;;;;12.10;11.00;;;;;;;;;;4995137;28;20414;-78
2023/05/08 10:56:37;;;;;;;12.87;11.67;;;;;;;;;;4990758;28;20478;-79
2023/05/08 10:59:03;;;;;;;12.40;11.20;;;;;;;;;;4991444;28;20419;-78
2023/05/08 11:01:30;;;;;;;13.93;12.53;;;;;;;;;;4991933;28;20423;-78
2023/05/08 11:03:57;;;;;;;13.00;11.70;;;;;;;;;;4994234;28;20418;-78
2023/05/08 11:06:42;;;;;;;13.05;11.20;;;;;;;;;;4989302;28;20426;-78
2023/05/08 11:09:14;;;;;;;13.52;12.10;;;;;;;;;;4990157;28;20896;-79
2023/05/08 11:11:44;;;;;;;13.52;12.07;;;;;;;;;;4992088;28;20480;-79
2023/05/08 11:14:13;;;;;;;13.77;12.27;;;;;;;;;;4981462;28;20920;-78
2023/05/08 11:16:58;;;;;;;13.40;12.13;;;;;;;;;;4993490;28;20410;-78
2023/05/08 11:19:25;;;;;;;12.25;11.15;;;;;;;;;;4994080;28;20489;-78
2023/05/08 11:22:10;;;;;;;12.40;11.30;;;;;;;;;;4988307;28;20896;-78
2023/05/08 11:24:38;;;;;;;13.18;11.27;;;;;;;;;;4990375;28;20909;-78
2023/05/08 11:27:05;;;;;;;12.90;11.50;;;;;;;;;;4994321;28;20425;-78
2023/05/08 11:29:31;;;;;;;13.38;11.82;;;;;;;;;;4988791;28;20428;-78
2023/05/08 11:31:57;;;;;;;13.57;12.27;;;;;;;;;;4993402;28;20804;-78
2023/05/08 11:34:50;;;;;;;13.40;12.10;;;;;;;;;;4990947;28;20510;-78
2023/05/08 11:37:19;;;;;;;12.27;11.07;;;;;;;;;;4971012;28;20435;-78
2023/05/08 11:39:47;;;;;;;13.30;12.00;;;;;;;;;;4993747;28;20418;-78
2023/05/08 11:42:32;;;;;;;14.07;12.77;;;;;;;;;;5001286;28;20417;-78
2023/05/08 11:45:05;;;;;;;15.48;12.30;;;;;;;;;;4993864;28;20781;-78
2023/05/08 11:47:35;;;;;;;13.70;12.30;;;;;;;;;;4994131;28;20418;-78
2023/05/08 11:50:01;;;;;;;13.30;12.00;;;;;;;;;;4992903;28;20476;-79
2023/05/08 11:52:28;;;;;;;13.88;12.57;;;;;;;;;;4994256;28;20421;-78
2023/05/08 11:54:56;;;;;;;14.13;12.43;;;;;;;;;;4990388;28;20416;-78
2023/05/08 11:57:22;;;;;;;13.63;12.23;;;;;;;;;;4993436;28;20441;-78
2023/05/08 11:59:49;;;;;;;12.68;11.38;;;;;;;;;;5003329;28;20426;-79
2023/05/08 12:02:16;;;;;;;12.88;11.55;;;;;;;;;;4991469;28;20429;-78
2023/05/08 12:04:43;;;;;;;14.13;12.73;;;;;;;;;;4989692;28;20513;-78
2023/05/08 12:07:10;;;;;;;13.50;12.10;;;;;;;;;;4996953;28;20912;-79
2023/05/08 12:09:37;;;;;;;13.07;11.88;;;;;;;;;;4982744;28;20418;-78
2023/05/08 12:12:05;;;;;;;13.45;12.15;;;;;;;;;;4992779;28;20429;-78
2023/05/08 12:14:31;;;;;;;14.93;12.90;;;;;;;;;;4993355;28;20896;-78
2023/05/08 12:16:57;;;;;;;13.48;12.00;;;;;;;;;;4988750;28;20415;-78
2023/05/08 12:19:24;;;;;;;12.90;11.55;;;;;;;;;;4992357;28;20422;-78
2023/05/08 12:21:50;;;;;;;13.30;12.07;;;;;;;;;;4992659;28;20788;-79
2023/05/08 12:24:21;;;;;;;13.45;12.23;;;;;;;;;;4987043;28;20499;-78
2023/05/08 12:26:47;;;;;;;12.25;11.15;;;;;;;;;;4993677;28;20430;-78
2023/05/08 12:29:18;;;;;;;13.25;11.95;;;;;;;;;;4993103;28;20421;-78
2023/05/08 12:31:44;;;;;;;13.90;12.50;;;;;;;;;;4992089;28;20418;-78
2023/05/08 12:34:11;;;;;;;12.85;11.63;;;;;;;;;;4991961;28;20441;-78
2023/05/08 12:36:38;;;;;;;12.73;11.20;;;;;;;;;;4988454;28;20437;-78
2023/05/08 12:39:14;;;;;;;13.13;11.75;;;;;;;;;;4992356;28;20414;-79
2023/05/08 12:41:47;;;;;;;12.88;11.57;;;;;;;;;;4992489;28;20506;-79
2023/05/08 12:44:19;;;;;;;14.25;12.88;;;;;;;;;;4992542;28;20903;-79
2023/05/08 12:46:49;;;;;;;12.20;11.10;;;;;;;;;;4990200;28;20947;-79
2023/05/08 12:49:22;;;;;;;13.13;11.83;;;;;;;;;;4985157;28;20420;-78
2023/05/08 12:51:49;;;;;;;12.00;10.70;;;;;;;;;;4990055;28;20429;-79
2023/05/08 12:54:15;;;;;;;12.65;11.32;;;;;;;;;;4987320;28;20418;-78
2023/05/08 12:56:42;;;;;;;12.77;11.57;;;;;;;;;;4992574;28;20431;-78
2023/05/08 12:59:10;;;;;;;12.20;10.90;;;;;;;;;;4992003;28;20414;-79
2023/05/08 13:01:37;;;;;;;11.82;10.63;;;;;;;;;;4991911;28;20441;-78
2023/05/08 13:04:06;;;;;;;11.18;10.05;;;;;;;;;;4992480;28;20789;-78
2023/05/08 13:06:33;;;;;;;13.45;11.05;;;;;;;;;;4992123;28;20414;-78
2023/05/08 13:08:59;;;;;;;13.43;11.40;;;;;;;;;;4995314;28;20415;-78
2023/05/08 13:11:30;;;;;;;11.90;10.70;;;;;;;;;;4994449;28;20924;-78
2023/05/08 13:13:56;;;;;;;11.20;9.60;;;;;;;;;;4992552;28;20832;-78
2023/05/08 13:16:22;;;;;;;10.80;9.80;;;;;;;;;;4992419;28;20426;-78
2023/05/08 13:18:50;;;;;;;11.50;10.50;;;;;;;;;;4992557;28;20450;-79
2023/05/08 13:21:16;;;;;;;11.82;10.35;;;;;;;;;;4992123;28;20426;-78
2023/05/08 13:23:43;;;;;;;10.80;9.70;;;;;;;;;;4991952;28;20422;-78
2023/05/08 13:26:09;;;;;;;11.35;9.90;;;;;;;;;;4984199;28;20471;-78
2023/05/08 13:28:35;;;;;;;9.85;8.98;;;;;;;;;;4987945;28;20430;-78
2023/05/08 13:31:02;;;;;;;10.13;9.13;;;;;;;;;;4990023;28;20792;-78
2023/05/08 13:33:28;;;;;;;11.07;9.55;;;;;;;;;;4992746;28;20419;-78
2023/05/08 13:35:56;;;;;;;10.38;9.45;;;;;;;;;;4992081;28;20448;-78
2023/05/08 13:38:22;;;;;;;10.15;9.15;;;;;;;;;;4987621;28;20421;-79
2023/05/08 13:40:48;;;;;;;10.77;9.68;;;;;;;;;;4990879;28;20441;-78
2023/05/08 13:43:15;;;;;;;9.48;8.27;;;;;;;;;;4992133;28;20410;-78
2023/05/08 13:45:42;;;;;;;9.73;8.73;;;;;;;;;;4995743;28;20429;-78
2023/05/08 13:48:08;;;;;;;9.95;9.05;;;;;;;;;;4997245;28;20421;-78
2023/05/08 13:50:35;;;;;;;13.93;10.10;;;;;;;;;;4996247;28;20912;-78
2023/05/08 13:53:03;;;;;;;8.77;7.88;;;;;;;;;;4996274;28;20496;-79
2023/05/08 13:55:29;;;;;;;15.80;10.30;;;;;;;;;;4996276;28;20418;-78
2023/05/08 13:57:56;;;;;;;10.70;9.63;;;;;;;;;;4996173;28;20425;-79
2023/05/08 14:00:23;;;;;;;9.65;8.70;;;;;;;;;;4995259;28;20781;-78
2023/05/08 14:02:49;;;;;;;9.65;8.55;;;;;;;;;;5001063;28;20417;-78
2023/05/08 14:05:16;;;;;;;11.30;8.82;;;;;;;;;;4995391;28;20422;-78
2023/05/08 14:07:44;;;;;;;9.60;8.60;;;;;;;;;;4996126;28;20861;-79
2023/05/08 14:10:12;;;;;;;9.90;8.90;;;;;;;;;;4998778;28;20461;-78
2023/05/08 14:12:39;;;;;;;8.90;8.00;;;;;;;;;;4996038;28;20418;-78
2023/05/08 14:15:06;;;;;;;10.60;8.50;;;;;;;;;;4995166;28;20938;-78
2023/05/08 14:17:32;;;;;;;8.40;7.60;;;;;;;;;;4993161;28;20921;-78
2023/05/08 14:20:00;;;;;;;7.30;6.60;;;;;;;;;;4991893;28;20441;-78
2023/05/08 14:22:26;;;;;;;8.32;7.43;;;;;;;;;;4993924;28;20795;-78
2023/05/08 14:24:52;;;;;;;7.43;6.75;;;;;;;;;;4992690;28;20433;-78
2023/05/08 14:27:20;;;;;;;8.10;7.30;;;;;;;;;;4995663;28;20438;-78